createdAt,value
2022-10-01T09:25:52.547Z,0.97
2022-10-01T09:28:56.750Z,4.60
2022-10-01T09:32:02.323Z,2.70
2022-10-01T09:35:16.354Z,1.70
2022-10-01T09:38:24.124Z,1.30
2022-10-01T09:41:31.264Z,1.13
2022-10-01T09:44:34.977Z,0.90
2022-10-01T09:47:37.694Z,0.80
2022-10-01T09:50:45.034Z,1.73
2022-10-01T09:53:59.308Z,0.87
2022-10-01T09:57:10.498Z,1.23
2022-10-01T10:00:19.246Z,1.13
2022-10-01T10:03:26.170Z,1.77
2022-10-01T10:06:32.173Z,1.10
2022-10-01T10:09:36.973Z,1.30
2022-10-01T10:12:43.453Z,2.23
2022-10-01T10:15:53.946Z,2.30
2022-10-01T10:18:59.522Z,1.40
2022-10-01T10:22:12.404Z,2.00
2022-10-01T10:25:22.610Z,1.37
2022-10-01T10:28:27.860Z,1.20
2022-10-01T10:31:39.143Z,3.40
2022-10-01T10:34:46.269Z,2.53
2022-10-01T10:37:51.911Z,1.13
2022-10-01T10:40:54.643Z,2.97
2022-10-01T10:44:01.480Z,1.20
2022-10-01T10:47:08.018Z,2.73
2022-10-01T10:50:30.254Z,1.03
2022-10-01T10:53:43.979Z,1.60
2022-10-01T10:56:54.054Z,0.80
2022-10-01T10:59:59.734Z,2.70
2022-10-01T11:03:06.609Z,2.73
2022-10-01T11:06:13.236Z,2.80
2022-10-01T11:09:19.667Z,0.80
2022-10-01T11:12:38.714Z,1.50
2022-10-01T11:15:57.390Z,3.60
2022-10-01T11:19:23.782Z,3.60
2022-10-01T11:22:41.096Z,2.47
2022-10-01T11:25:52.987Z,4.67
2022-10-01T11:29:13.410Z,2.57
2022-10-01T11:32:26.126Z,8.37
2022-10-01T11:35:55.409Z,1.80
2022-10-01T11:39:01.990Z,1.83
2022-10-01T11:42:09.329Z,1.33
2022-10-01T11:45:21.291Z,2.80
2022-10-01T11:48:31.275Z,2.30
2022-10-01T11:51:41.405Z,1.57
2022-10-01T11:54:56.429Z,3.77
2022-10-01T11:58:24.685Z,3.07
2022-10-01T12:01:36.960Z,4.43
2022-10-01T12:04:46.159Z,2.63
2022-10-01T12:07:56.283Z,5.00
2022-10-01T12:11:07.918Z,2.10
2022-10-01T12:14:17.941Z,1.20
2022-10-01T12:17:27.787Z,3.23
2022-10-01T12:20:37.814Z,0.50
2022-10-01T12:23:47.626Z,1.87
2022-10-01T12:27:03.745Z,0.90
2022-10-01T12:30:14.301Z,1.23
2022-10-01T12:33:42.003Z,1.57
2022-10-01T12:37:05.528Z,1.80
2022-10-01T12:40:33.526Z,0.93
2022-10-01T12:44:16.069Z,1.07
2022-10-01T12:47:43.107Z,1.43
2022-10-01T12:50:53.342Z,1.27
2022-10-01T12:54:04.938Z,8.43
2022-10-01T12:57:21.930Z,2.10
2022-10-01T13:00:26.532Z,3.03
2022-10-01T13:03:51.598Z,2.23
2022-10-01T13:07:09.184Z,1.70
2022-10-01T13:10:25.738Z,1.33
2022-10-01T13:13:32.843Z,3.17
2022-10-01T13:16:42.654Z,4.80
2022-10-01T13:19:55.362Z,2.33
2022-10-01T13:23:06.422Z,9.10
2022-10-01T13:26:17.445Z,6.73
2022-10-01T13:29:32.511Z,3.57
2022-10-01T13:32:37.992Z,2.40
2022-10-01T13:35:41.353Z,2.27
2022-10-01T13:38:47.897Z,4.27
2022-10-01T13:41:58.320Z,4.63
2022-10-01T13:45:04.581Z,4.13
2022-10-01T13:48:18.364Z,3.97
2022-10-01T13:51:21.386Z,3.27
2022-10-01T13:54:28.426Z,2.90
2022-10-01T13:57:37.729Z,5.30
2022-10-01T14:00:49.373Z,6.67
2022-10-01T14:04:01.497Z,6.33
2022-10-01T14:07:12.857Z,2.57
2022-10-01T14:10:17.035Z,4.20
2022-10-01T14:13:38.416Z,5.40
2022-10-01T14:16:44.839Z,4.60
2022-10-01T14:19:49.701Z,5.93
2022-10-01T14:23:06.658Z,3.07
2022-10-01T14:26:18.392Z,3.20
2022-10-01T14:29:38.266Z,5.10
2022-10-01T14:33:07.694Z,4.33
2022-10-01T14:36:17.350Z,6.10
2022-10-01T14:39:22.237Z,5.20
2022-10-01T14:42:24.985Z,3.03
2022-10-01T14:45:30.096Z,2.47
2022-10-01T14:48:34.579Z,2.47
2022-10-01T14:51:37.305Z,2.80
2022-10-01T14:54:45.909Z,2.43
2022-10-01T14:57:51.648Z,5.27
2022-10-01T15:00:57.730Z,4.07
2022-10-01T15:04:00.506Z,2.30
2022-10-01T15:07:16.470Z,2.03
2022-10-01T15:10:20.737Z,1.70
2022-10-01T15:13:27.859Z,3.93
2022-10-01T15:16:33.217Z,3.50
2022-10-01T15:19:45.704Z,2.90
2022-10-01T15:22:58.956Z,3.43
2022-10-01T15:26:08.725Z,2.57
2022-10-01T15:29:14.708Z,2.70
2022-10-01T15:32:21.775Z,5.37
2022-10-01T15:35:25.941Z,3.90
2022-10-01T15:38:31.938Z,6.27
2022-10-01T15:41:35.213Z,5.17
2022-10-01T15:44:45.534Z,3.47
2022-10-01T15:47:57.073Z,2.70
2022-10-01T15:51:03.240Z,3.97
2022-10-01T15:54:10.274Z,3.87
2022-10-01T15:57:18.618Z,5.63
2022-10-01T16:00:23.146Z,11.13
2022-10-01T16:03:31.111Z,2.87
2022-10-01T16:06:38.638Z,2.93
2022-10-01T16:09:52.848Z,4.10
2022-10-01T16:12:55.564Z,2.30
2022-10-01T16:16:20.029Z,3.00
2022-10-01T16:19:33.702Z,9.20
2022-10-01T16:22:40.884Z,2.13
2022-10-01T16:25:48.397Z,3.27
2022-10-01T16:28:55.659Z,5.67
2022-10-01T16:31:59.889Z,5.40
2022-10-01T16:35:24.236Z,3.77
2022-10-01T16:38:27.774Z,5.37
2022-10-01T16:41:33.755Z,4.83
2022-10-01T16:44:39.879Z,3.83
2022-10-01T16:47:42.918Z,4.30
2022-10-01T16:50:47.637Z,8.37
2022-10-01T16:53:50.409Z,2.80
2022-10-01T16:56:55.405Z,2.00
2022-10-01T16:59:58.139Z,2.83
2022-10-01T17:03:01.044Z,4.37
2022-10-01T17:06:05.259Z,2.67
2022-10-01T17:09:08.187Z,3.70
2022-10-01T17:12:11.173Z,2.27
2022-10-01T17:15:17.164Z,4.23
2022-10-01T17:18:20.502Z,2.83
2022-10-01T17:21:24.560Z,2.47
2022-10-01T17:24:27.461Z,1.27
2022-10-01T17:27:30.475Z,3.97
2022-10-01T17:30:33.412Z,2.63
2022-10-01T17:33:36.721Z,6.73
2022-10-01T17:36:40.931Z,6.60
2022-10-01T17:39:43.874Z,4.93
2022-10-01T17:42:46.675Z,2.00
2022-10-01T17:45:57.519Z,3.27
2022-10-01T17:49:00.253Z,2.37
2022-10-01T17:52:05.733Z,2.70
2022-10-01T17:55:10.048Z,6.33
2022-10-01T17:58:12.733Z,3.10
2022-10-01T18:01:19.973Z,3.43
2022-10-01T18:04:23.140Z,5.03
2022-10-01T18:07:27.355Z,3.27
2022-10-01T18:10:30.093Z,5.20
2022-10-01T18:13:33.971Z,2.63
2022-10-01T18:16:37.169Z,2.00
2022-10-01T18:19:53.286Z,3.23
2022-10-01T18:22:58.922Z,3.77
2022-10-01T18:26:01.828Z,4.23
2022-10-01T18:29:05.364Z,5.53
2022-10-01T18:32:16.877Z,2.10
2022-10-01T18:35:26.704Z,3.53
2022-10-01T18:38:35.134Z,4.03
2022-10-01T18:41:40.346Z,4.10
2022-10-01T18:44:43.602Z,12.47
2022-10-01T18:47:59.370Z,3.77
2022-10-01T18:51:13.198Z,2.37
2022-10-01T18:54:37.784Z,3.53
2022-10-01T18:57:58.465Z,2.13
2022-10-01T19:01:08.418Z,5.97
2022-10-01T19:04:53.841Z,5.47
2022-10-01T19:08:11.257Z,5.93
2022-10-01T19:11:21.870Z,6.37
2022-10-01T19:14:42.602Z,5.80
2022-10-01T19:17:58.613Z,5.27
2022-10-01T19:21:15.106Z,5.57
2022-10-01T19:24:45.786Z,4.33
2022-10-01T19:28:03.092Z,2.37
2022-10-01T19:31:14.663Z,5.33
2022-10-01T19:34:23.201Z,2.60
2022-10-01T19:37:30.998Z,4.70
2022-10-01T19:40:37.707Z,4.90
2022-10-01T19:43:48.829Z,4.33
2022-10-01T19:46:53.508Z,5.83
2022-10-01T19:50:00.574Z,2.73
2022-10-01T19:53:05.567Z,5.30
2022-10-01T19:56:13.181Z,11.03
2022-10-01T19:59:20.563Z,5.27
2022-10-01T20:02:33.392Z,5.93
2022-10-01T20:05:42.987Z,4.47
2022-10-01T20:08:52.625Z,10.83
2022-10-01T20:12:04.079Z,15.43
2022-10-01T20:15:22.611Z,7.00
2022-10-01T20:18:35.514Z,5.23
2022-10-01T20:21:47.044Z,4.43
2022-10-01T20:24:58.932Z,4.40
2022-10-01T20:28:13.548Z,5.80
2022-10-01T20:31:24.391Z,5.47
2022-10-01T20:34:38.473Z,7.07
2022-10-01T20:37:58.405Z,6.47
2022-10-01T20:41:05.981Z,3.77
2022-10-01T20:44:14.336Z,8.50
2022-10-01T20:47:25.018Z,12.50
2022-10-01T20:50:33.586Z,7.07
2022-10-01T20:53:44.766Z,7.70
2022-10-01T20:56:54.326Z,8.17
2022-10-01T21:00:03.282Z,5.30
2022-10-01T21:03:19.301Z,8.07
2022-10-01T21:06:26.786Z,5.87
2022-10-01T21:09:35.068Z,4.67
2022-10-01T21:12:43.058Z,9.23
2022-10-01T21:15:55.708Z,10.97
2022-10-01T21:19:17.244Z,4.83
2022-10-01T21:22:36.246Z,6.40
2022-10-01T21:25:53.695Z,9.47
2022-10-01T21:29:24.323Z,9.03
2022-10-01T21:32:40.631Z,9.10
2022-10-01T21:35:51.758Z,10.67
2022-10-01T21:39:00.384Z,11.53
2022-10-01T21:42:16.354Z,6.43
2022-10-01T21:45:36.153Z,9.17
2022-10-01T21:48:49.926Z,11.63
2022-10-01T21:52:05.081Z,13.83
2022-10-01T21:55:24.312Z,11.23
2022-10-01T21:58:41.126Z,10.00
2022-10-01T22:01:56.158Z,10.23
2022-10-01T22:05:03.942Z,20.17
2022-10-01T22:08:24.732Z,25.03
2022-10-01T22:11:32.181Z,17.00
2022-10-01T22:14:35.334Z,9.67
2022-10-01T22:17:39.553Z,13.30
2022-10-01T22:20:45.152Z,12.73
2022-10-01T22:23:58.230Z,13.60
2022-10-01T22:27:11.143Z,10.97
2022-10-01T22:30:17.117Z,16.73
2022-10-01T22:33:25.917Z,14.20
2022-10-01T22:36:34.418Z,17.10
2022-10-01T22:39:44.561Z,11.93
2022-10-01T22:42:54.057Z,11.60
2022-10-01T22:46:18.212Z,12.63
2022-10-01T22:49:34.546Z,12.60
2022-10-01T22:52:43.555Z,12.50
2022-10-01T22:55:53.625Z,11.43
2022-10-01T22:59:09.458Z,13.53
2022-10-01T23:02:20.183Z,14.13
2022-10-01T23:05:35.645Z,14.90
2022-10-01T23:08:45.293Z,14.00
2022-10-01T23:11:57.793Z,14.67
2022-10-01T23:15:12.879Z,15.73
2022-10-01T23:18:29.165Z,13.20
2022-10-01T23:21:38.827Z,16.07
2022-10-01T23:24:52.016Z,11.47
2022-10-01T23:28:09.098Z,13.90
2022-10-01T23:31:23.295Z,15.00
2022-10-01T23:34:33.172Z,13.87
2022-10-01T23:37:53.694Z,13.67
2022-10-01T23:40:59.053Z,15.83
2022-10-01T23:44:12.395Z,16.90
2022-10-01T23:47:21.745Z,14.20
2022-10-01T23:50:31.815Z,10.67
2022-10-01T23:53:41.595Z,24.10
2022-10-01T23:56:50.919Z,14.17
